createdAt,value
2022-08-31T00:03:55.667Z,17.94
2022-08-31T00:08:57.708Z,17.92
2022-08-31T00:14:02.207Z,17.91
2022-08-31T00:19:05.452Z,17.86
2022-08-31T00:24:07.228Z,17.78
2022-08-31T00:29:09.630Z,17.83
2022-08-31T00:34:11.555Z,17.84
2022-08-31T00:39:14.906Z,17.85
2022-08-31T00:44:17.231Z,17.90
2022-08-31T00:49:31.222Z,17.84
2022-08-31T00:54:36.331Z,17.82
2022-08-31T00:59:40.969Z,17.77
2022-08-31T01:04:42.534Z,17.67
2022-08-31T01:09:53.259Z,17.64
2022-08-31T01:14:58.519Z,17.55
2022-08-31T01:20:15.451Z,17.66
2022-08-31T01:25:18.773Z,17.66
2022-08-31T01:30:23.543Z,17.65
2022-08-31T01:35:25.231Z,17.63
2022-08-31T01:40:34.089Z,17.58
2022-08-31T01:45:35.660Z,17.56
2022-08-31T01:50:37.181Z,17.54
2022-08-31T01:55:39.324Z,17.60
2022-08-31T02:00:41.391Z,17.62
2022-08-31T02:05:42.994Z,17.59
2022-08-31T02:10:44.558Z,17.58
2022-08-31T02:15:46.080Z,17.59
2022-08-31T02:20:47.570Z,17.54
2022-08-31T02:25:49.401Z,17.50
2022-08-31T02:30:50.909Z,17.52
2022-08-31T02:35:53.812Z,17.51
2022-08-31T02:40:55.401Z,17.51
2022-08-31T02:45:56.978Z,17.50
2022-08-31T02:51:05.682Z,17.41
2022-08-31T02:56:08.078Z,17.35
2022-08-31T03:01:10.347Z,17.30
2022-08-31T03:06:11.909Z,17.24
2022-08-31T03:11:14.194Z,17.14
2022-08-31T03:16:15.957Z,17.02
2022-08-31T03:21:17.499Z,17.00
2022-08-31T03:26:19.018Z,16.90
2022-08-31T03:31:20.599Z,16.80
2022-08-31T03:36:22.187Z,16.79
2022-08-31T03:41:25.378Z,16.82
2022-08-31T03:46:26.912Z,16.79
2022-08-31T03:51:28.951Z,16.80
2022-08-31T03:56:30.749Z,16.81
2022-08-31T04:01:32.304Z,16.82
2022-08-31T04:06:33.916Z,16.87
2022-08-31T04:11:45.136Z,16.84
2022-08-31T04:16:47.277Z,16.80
2022-08-31T04:21:50.090Z,16.82
2022-08-31T04:26:52.943Z,16.72
2022-08-31T04:31:54.483Z,16.63
2022-08-31T04:36:56.041Z,16.45
2022-08-31T04:41:57.523Z,16.37
2022-08-31T04:46:59.129Z,16.34
2022-08-31T04:52:00.721Z,16.34
2022-08-31T04:57:04.807Z,16.19
2022-08-31T05:02:06.401Z,16.17
2022-08-31T05:07:07.978Z,16.13
2022-08-31T05:12:09.476Z,16.08
2022-08-31T05:17:14.899Z,16.10
2022-08-31T05:22:16.841Z,16.04
2022-08-31T05:27:18.338Z,16.02
2022-08-31T05:32:19.860Z,16.02
2022-08-31T05:37:24.288Z,16.04
2022-08-31T05:42:26.240Z,16.05
2022-08-31T05:47:28.689Z,16.11
2022-08-31T05:52:30.237Z,16.14
2022-08-31T05:57:31.826Z,16.18
2022-08-31T06:02:35.084Z,16.14
2022-08-31T06:07:36.586Z,16.08
2022-08-31T06:12:39.042Z,16.13
2022-08-31T06:17:40.546Z,16.17
2022-08-31T06:22:45.134Z,16.24
2022-08-31T06:27:50.410Z,16.34
2022-08-31T06:32:54.698Z,16.41
2022-08-31T06:37:59.608Z,16.62
2022-08-31T06:43:01.110Z,16.96
2022-08-31T06:48:04.556Z,17.25
2022-08-31T06:53:06.062Z,17.57
2022-08-31T06:58:07.559Z,17.70
2022-08-31T07:03:24.242Z,17.83
2022-08-31T07:08:25.689Z,17.96
2022-08-31T07:13:27.215Z,17.97
2022-08-31T07:18:28.691Z,17.87
2022-08-31T07:23:30.191Z,17.69
2022-08-31T07:28:31.875Z,17.64
2022-08-31T07:33:38.962Z,17.80
2022-08-31T07:39:00.416Z,17.97
2022-08-31T07:44:02.012Z,18.15
2022-08-31T07:49:08.879Z,18.17
2022-08-31T07:54:10.941Z,18.10
2022-08-31T07:59:14.947Z,18.13
2022-08-31T08:04:26.234Z,18.05
2022-08-31T08:09:29.909Z,18.15
2022-08-31T08:14:36.264Z,18.23
2022-08-31T08:19:37.760Z,18.42
2022-08-31T08:24:40.039Z,18.44
2022-08-31T08:29:42.563Z,18.49
2022-08-31T08:34:44.751Z,18.47
2022-08-31T08:39:46.231Z,18.51
2022-08-31T08:44:48.104Z,18.50
2022-08-31T08:49:58.671Z,18.65
2022-08-31T08:55:04.110Z,18.77
2022-08-31T09:00:11.051Z,18.95
2022-08-31T09:05:12.568Z,19.12
2022-08-31T09:10:46.436Z,19.23
2022-08-31T09:16:09.315Z,19.35
2022-08-31T09:21:34.466Z,19.44
2022-08-31T09:27:17.281Z,19.59
2022-08-31T09:32:26.893Z,19.70
2022-08-31T09:37:38.113Z,19.86
2022-08-31T09:42:40.389Z,19.96
2022-08-31T09:47:53.470Z,19.85
2022-08-31T09:53:33.573Z,19.88
2022-08-31T09:58:35.086Z,19.95
2022-08-31T10:03:38.103Z,20.14
2022-08-31T10:08:46.191Z,20.29
2022-08-31T10:13:57.744Z,20.47
2022-08-31T10:19:09.754Z,20.31
2022-08-31T10:24:28.054Z,20.42
2022-08-31T10:29:40.223Z,20.54
2022-08-31T10:35:00.567Z,20.90
2022-08-31T10:40:10.166Z,20.77
2022-08-31T10:45:19.032Z,20.60
2022-08-31T10:50:45.097Z,20.73
2022-08-31T10:56:08.139Z,20.75
2022-08-31T11:01:34.628Z,20.92
2022-08-31T11:06:51.498Z,20.92
2022-08-31T11:12:04.974Z,21.13
2022-08-31T11:17:29.917Z,21.14
2022-08-31T11:22:38.163Z,21.08
2022-08-31T11:28:10.313Z,21.03
2022-08-31T11:33:20.336Z,21.09
2022-08-31T11:38:48.799Z,21.00
2022-08-31T11:43:52.254Z,21.17
2022-08-31T11:48:54.486Z,21.05
2022-08-31T11:53:56.238Z,21.06
2022-08-31T11:59:37.853Z,21.28
2022-08-31T12:04:43.412Z,21.37
2022-08-31T12:10:27.204Z,21.26
2022-08-31T12:15:51.365Z,21.15
2022-08-31T12:21:31.890Z,21.12
2022-08-31T12:26:45.543Z,21.14
2022-08-31T12:32:12.663Z,21.12
2022-08-31T12:37:19.143Z,21.08
2022-08-31T12:42:20.641Z,21.08
2022-08-31T12:47:56.003Z,21.06
2022-08-31T12:53:17.448Z,21.02
2022-08-31T12:58:56.420Z,21.12
2022-08-31T13:04:03.345Z,21.15
2022-08-31T13:09:05.560Z,21.20
2022-08-31T13:14:19.917Z,21.38
2022-08-31T13:19:28.013Z,21.37
2022-08-31T13:24:33.454Z,21.32
2022-08-31T13:29:41.189Z,21.32
2022-08-31T13:34:42.821Z,21.38
2022-08-31T13:39:46.440Z,21.34
2022-08-31T13:44:54.394Z,21.27
2022-08-31T13:50:13.249Z,21.35
2022-08-31T13:55:30.971Z,21.36
2022-08-31T14:00:32.434Z,21.39
2022-08-31T14:05:38.034Z,21.51
2022-08-31T14:10:49.560Z,21.55
2022-08-31T14:15:54.910Z,21.56
2022-08-31T14:21:26.653Z,21.60
2022-08-31T14:26:34.183Z,21.49
2022-08-31T14:31:51.999Z,21.42
2022-08-31T14:37:08.655Z,21.51
2022-08-31T14:42:27.142Z,21.45
2022-08-31T14:47:31.700Z,21.49
2022-08-31T14:52:38.724Z,21.63
2022-08-31T14:57:43.811Z,21.58
2022-08-31T15:02:49.603Z,21.58
2022-08-31T15:07:53.406Z,21.56
2022-08-31T15:12:55.675Z,21.53
2022-08-31T15:17:57.251Z,21.57
2022-08-31T15:22:59.031Z,21.60
2022-08-31T15:28:01.765Z,21.57
2022-08-31T15:33:03.283Z,21.57
2022-08-31T15:38:06.437Z,21.57
2022-08-31T15:43:15.065Z,21.64
2022-08-31T15:48:35.369Z,21.63
2022-08-31T15:53:37.954Z,21.62
2022-08-31T15:58:39.468Z,21.52
2022-08-31T16:03:41.977Z,21.49
2022-08-31T16:08:43.569Z,21.37
2022-08-31T16:13:52.118Z,21.28
2022-08-31T16:18:57.096Z,21.08
2022-08-31T16:24:01.006Z,21.04
2022-08-31T16:29:04.807Z,20.96
2022-08-31T16:34:06.810Z,20.84
2022-08-31T16:39:09.146Z,20.81
2022-08-31T16:44:19.675Z,20.75
2022-08-31T16:49:33.572Z,20.70
2022-08-31T16:54:41.222Z,20.59
2022-08-31T16:59:43.365Z,20.59
2022-08-31T17:04:52.525Z,20.47
2022-08-31T17:10:03.952Z,20.39
2022-08-31T17:15:06.096Z,20.28
2022-08-31T17:20:08.281Z,20.30
2022-08-31T17:25:09.961Z,20.16
2022-08-31T17:30:11.677Z,20.08
2022-08-31T17:35:18.025Z,20.01
2022-08-31T17:40:19.784Z,19.97
2022-08-31T17:45:21.559Z,19.85
2022-08-31T17:50:23.055Z,19.84
2022-08-31T17:55:24.586Z,19.84
2022-08-31T18:00:28.256Z,19.72
2022-08-31T18:05:29.826Z,19.66
2022-08-31T18:10:31.543Z,19.55
2022-08-31T18:15:33.885Z,19.52
2022-08-31T18:20:39.316Z,19.40
2022-08-31T18:25:42.240Z,19.34
2022-08-31T18:30:44.090Z,19.23
2022-08-31T18:35:46.569Z,19.09
2022-08-31T18:41:06.531Z,19.05
2022-08-31T18:46:09.125Z,19.03
2022-08-31T18:51:13.629Z,18.94
2022-08-31T18:56:18.147Z,18.86
2022-08-31T19:01:19.723Z,18.80
2022-08-31T19:06:24.919Z,18.77
2022-08-31T19:11:27.132Z,18.73
2022-08-31T19:16:29.017Z,18.65
2022-08-31T19:21:33.161Z,18.60
2022-08-31T19:26:38.317Z,18.52
2022-08-31T19:31:44.259Z,18.51
2022-08-31T19:36:50.299Z,18.42
2022-08-31T19:41:56.823Z,18.32
2022-08-31T19:46:59.863Z,18.31
2022-08-31T19:52:05.700Z,18.22
2022-08-31T19:57:08.891Z,18.18
2022-08-31T20:02:11.295Z,18.11
2022-08-31T20:07:13.554Z,18.09
2022-08-31T20:12:15.089Z,18.04
2022-08-31T20:17:16.730Z,18.03
2022-08-31T20:22:20.264Z,17.95
2022-08-31T20:27:21.765Z,17.94
2022-08-31T20:32:25.566Z,17.99
2022-08-31T20:37:27.076Z,18.14
2022-08-31T20:42:28.614Z,18.21
2022-08-31T20:47:48.471Z,18.20
2022-08-31T20:52:51.000Z,18.13
2022-08-31T20:57:52.674Z,17.98
2022-08-31T21:02:55.334Z,17.95
2022-08-31T21:07:57.279Z,17.91
2022-08-31T21:13:00.978Z,17.91
2022-08-31T21:18:02.494Z,17.84
2022-08-31T21:23:04.430Z,17.80
2022-08-31T21:28:06.925Z,17.76
2022-08-31T21:33:08.408Z,17.71
2022-08-31T21:38:12.979Z,17.62
2022-08-31T21:43:14.715Z,17.62
2022-08-31T21:48:16.236Z,17.65
2022-08-31T21:53:18.630Z,17.63
2022-08-31T21:58:20.181Z,17.51
2022-08-31T22:03:22.635Z,17.52
2022-08-31T22:08:26.050Z,17.49
2022-08-31T22:13:27.562Z,17.46
2022-08-31T22:23:58.349Z,17.43
2022-08-31T22:28:59.928Z,17.40
2022-08-31T22:34:01.415Z,17.38
2022-08-31T22:39:12.738Z,17.35
2022-08-31T22:44:17.824Z,17.39
2022-08-31T22:49:19.597Z,17.39
2022-08-31T22:54:22.696Z,17.36
2022-08-31T22:59:30.405Z,17.31
2022-08-31T23:04:34.350Z,17.26
2022-08-31T23:09:36.197Z,17.21
2022-08-31T23:14:38.210Z,17.17
2022-08-31T23:19:43.453Z,17.08
2022-08-31T23:24:47.711Z,17.02
2022-08-31T23:29:52.673Z,16.96
2022-08-31T23:34:56.897Z,16.95
2022-08-31T23:39:59.881Z,16.92
2022-08-31T23:45:02.057Z,16.87
2022-08-31T23:50:09.328Z,16.93
2022-08-31T23:55:11.088Z,16.96
